Time;durP1;ratioP1;P1;durP2;ratioP2;P2;SDS_P1;SDS_P2;PMS_P1;PMS_P2;Temp;Humidity;BMP_temperature;BMP_pressure;BME280_temperature;BME280_humidity;BME280_pressure;Samples;Min_cycle;Max_cycle;Signal;HPM_P1;HPM_P2
2023/01/21 00:02:02;;;;;;;31.77;18.77;;;2.40;74.70;;;;;;5019489;28;20137;-47
2023/01/21 00:04:38;;;;;;;35.45;19.80;;;2.40;74.70;;;;;;5030199;28;20533;-48
2023/01/21 00:07:05;;;;;;;;;;;2.40;74.70;;;;;;5030848;28;20589;-46
2023/01/21 00:09:32;;;;;;;31.23;17.98;;;2.50;74.90;;;;;;5028001;28;20300;-44
2023/01/21 00:12:01;;;;;;;49.75;18.83;;;2.50;74.50;;;;;;5027819;28;20052;-46
2023/01/21 00:14:31;;;;;;;31.92;18.77;;;2.50;74.60;;;;;;5025891;28;20064;-50
2023/01/21 00:16:58;;;;;;;37.35;22.27;;;2.40;75.30;;;;;;5030690;28;20052;-47
2023/01/21 00:19:27;;;;;;;37.53;21.17;;;2.40;74.80;;;;;;5028528;28;20069;-44
2023/01/21 00:21:57;;;;;;;29.35;19.30;;;2.50;74.90;;;;;;5022966;28;20053;-45
2023/01/21 00:24:26;;;;;;;34.80;20.13;;;2.50;74.90;;;;;;5030801;28;20064;-45
2023/01/21 00:26:58;;;;;;;31.98;19.98;;;2.50;75.00;;;;;;5028566;28;20089;-48
2023/01/21 00:29:25;;;;;;;31.75;19.42;;;2.50;74.90;;;;;;5026364;28;20041;-45
2023/01/21 00:31:52;;;;;;;30.52;18.95;;;2.50;74.90;;;;;;4988758;28;20140;-51
2023/01/21 00:34:18;;;;;;;36.58;20.23;;;2.50;74.90;;;;;;5030354;28;20099;-48
2023/01/21 00:36:49;;;;;;;33.38;19.25;;;2.50;75.00;;;;;;5030513;28;20049;-44
2023/01/21 00:39:16;;;;;;;35.58;21.30;;;2.50;75.00;;;;;;5030659;28;20084;-47
2023/01/21 00:41:42;;;;;;;40.58;21.30;;;2.50;75.00;;;;;;5026026;28;20067;-45
2023/01/21 00:44:15;;;;;;;37.28;20.67;;;2.50;75.00;;;;;;5029864;28;20045;-51
2023/01/21 00:46:43;;;;;;;38.63;20.27;;;2.50;75.00;;;;;;5024197;28;20673;-44
2023/01/21 00:49:16;;;;;;;36.80;21.27;;;2.50;74.90;;;;;;5020087;28;20037;-47
2023/01/21 00:51:44;;;;;;;28.60;15.05;;;2.50;74.90;;;;;;5029388;28;20045;-51
2023/01/21 00:54:11;;;;;;;34.65;20.75;;;2.50;75.00;;;;;;5023024;28;20034;-46
2023/01/21 00:56:41;;;;;;;33.70;20.30;;;2.50;74.90;;;;;;5031400;28;20049;-45
2023/01/21 00:59:09;;;;;;;32.65;20.08;;;2.50;75.00;;;;;;5009761;28;20585;-46
2023/01/21 01:01:37;;;;;;;31.95;21.27;;;2.50;75.00;;;;;;5026736;28;20033;-44
2023/01/21 01:04:05;;;;;;;39.97;21.83;;;2.50;75.00;;;;;;5030717;28;20097;-46
2023/01/21 01:06:34;;;;;;;37.78;22.63;;;2.50;74.90;;;;;;5028518;28;20109;-48
2023/01/21 01:09:00;;;;;;;37.05;20.85;;;2.50;74.90;;;;;;5020124;28;20454;-47
2023/01/21 01:11:27;;;;;;;31.15;19.92;;;2.50;75.00;;;;;;5030724;28;20040;-45
2023/01/21 01:13:54;;;;;;;36.80;20.55;;;2.50;75.00;;;;;;5030226;28;20065;-47
2023/01/21 01:16:21;;;;;;;31.98;18.73;;;2.50;75.00;;;;;;5025143;28;20046;-46
2023/01/21 01:18:48;;;;;;;36.13;20.08;;;2.50;75.00;;;;;;5010071;28;20095;-45
2023/01/21 01:21:17;;;;;;;32.30;19.80;;;2.50;75.00;;;;;;5030694;28;20100;-48
2023/01/21 01:23:47;;;;;;;35.97;20.80;;;2.50;74.90;;;;;;5030323;28;20052;-44
2023/01/21 01:26:21;;;;;;;35.85;20.08;;;2.40;74.90;;;;;;5017443;28;20048;-44
2023/01/21 01:28:51;;;;;;;30.45;18.90;;;2.40;74.80;;;;;;5024164;28;20081;-47
2023/01/21 01:31:20;;;;;;;36.47;20.45;;;2.40;74.80;;;;;;5029710;28;20044;-44
2023/01/21 01:33:50;;;;;;;31.70;19.38;;;2.40;74.70;;;;;;5029427;28;20046;-47
2023/01/21 01:36:22;;;;;;;32.50;20.25;;;2.40;74.80;;;;;;5025307;28;20038;-44
2023/01/21 01:38:50;;;;;;;32.22;19.33;;;2.40;74.70;;;;;;5028432;28;20045;-47
2023/01/21 01:41:20;;;;;;;33.95;20.08;;;2.40;74.70;;;;;;5030670;28;20391;-44
2023/01/21 01:44:10;;;;;;;32.65;20.10;;;2.40;74.70;;;;;;5021863;28;20067;-47
2023/01/21 01:46:40;;;;;;;34.83;19.83;;;2.40;74.70;;;;;;5019736;28;20063;-45
2023/01/21 01:49:18;;;;;;;33.78;20.60;;;2.30;74.60;;;;;;5030667;28;20744;-47
2023/01/21 01:52:02;;;;;;;31.77;19.92;;;2.30;74.60;;;;;;5030487;28;20564;-43
2023/01/21 01:54:35;;;;;;;34.40;19.88;;;2.30;74.60;;;;;;5025660;28;20046;-50
2023/01/21 01:57:08;;;;;;;35.30;19.15;;;2.30;74.60;;;;;;5029303;28;20072;-45
2023/01/21 01:59:35;;;;;;;31.02;18.88;;;2.30;74.70;;;;;;5030007;28;20520;-45
2023/01/21 02:02:08;;;;;;;32.45;19.83;;;2.30;74.60;;;;;;5028398;28;20045;-45
2023/01/21 02:05:03;;;;;;;31.05;18.60;;;2.30;74.60;;;;;;5018711;28;20042;-46
2023/01/21 02:07:38;;;;;;;37.55;19.42;;;2.30;74.60;;;;;;5024737;28;20099;-49
2023/01/21 02:10:13;;;;;;;32.65;19.25;;;2.30;74.50;;;;;;5029464;28;20044;-45
2023/01/21 02:12:42;;;;;;;32.15;18.70;;;2.20;74.40;;;;;;5028101;28;20045;-45
2023/01/21 02:15:11;;;;;;;23.33;14.35;;;2.20;74.50;;;;;;5028010;28;20033;-47
2023/01/21 02:17:48;;;;;;;32.65;19.15;;;2.20;74.40;;;;;;5030842;28;20056;-46
2023/01/21 02:20:34;;;;;;;35.72;20.02;;;2.20;74.50;;;;;;5021371;28;20067;-48
2023/01/21 02:23:24;;;;;;;33.38;19.00;;;2.20;74.60;;;;;;5023396;28;20046;-45
2023/01/21 02:26:45;;;;;;;36.35;21.42;;;2.20;74.80;;;;;;5025626;28;20473;-47
2023/01/21 02:29:38;;;;;;;36.65;20.35;;;2.10;74.90;;;;;;4979124;28;20046;-44
2023/01/21 02:32:48;;;;;;;33.67;19.73;;;2.20;74.80;;;;;;4979645;28;20130;-45
2023/01/21 02:35:26;;;;;;;34.42;18.50;;;2.20;75.00;;;;;;5028067;28;20485;-45
2023/01/21 02:38:33;;;;;;;37.13;20.17;;;2.20;74.90;;;;;;5030384;28;20549;-47
2023/01/21 02:41:12;;;;;;;31.02;18.95;;;2.10;75.00;;;;;;4993324;28;20068;-47
2023/01/21 02:43:46;;;;;;;35.13;19.70;;;2.10;74.80;;;;;;5023496;28;20439;-49
2023/01/21 02:46:18;;;;;;;;;;;2.10;74.80;;;;;;5028791;28;20041;-48
2023/01/21 02:48:54;;;;;;;35.87;18.07;;;2.20;75.10;;;;;;5030532;28;20289;-45
2023/01/21 02:51:22;;;;;;;33.78;18.92;;;2.20;74.80;;;;;;5020569;28;20037;-48
2023/01/21 02:53:49;;;;;;;39.28;21.27;;;2.10;74.80;;;;;;5022634;28;20051;-45
2023/01/21 02:56:23;;;;;;;40.63;21.77;;;2.10;74.90;;;;;;5028741;28;20049;-47
2023/01/21 02:58:52;;;;;;;;;;;2.10;74.90;;;;;;5030686;28;20049;-48
2023/01/21 03:01:24;;;;;;;29.60;17.02;;;2.10;75.10;;;;;;5016297;28;20024;-46
2023/01/21 03:04:23;;;;;;;35.25;19.98;;;2.20;74.80;;;;;;5025147;28;20037;-49
2023/01/21 03:07:31;;;;;;;35.97;21.35;;;2.30;74.90;;;;;;5029154;28;20046;-44
2023/01/21 03:10:09;;;;;;;34.25;19.10;;;2.10;74.80;;;;;;5025701;28;20049;-44
2023/01/21 03:12:49;;;;;;;34.35;19.42;;;2.10;74.80;;;;;;5024935;28;20120;-47
2023/01/21 03:18:28;;;;;;;34.63;18.15;;;2.10;74.80;;;;;;5021071;28;20048;-44
2023/01/21 03:21:09;;;;;;;36.22;20.65;;;2.10;74.80;;;;;;5027289;28;20045;-48
2023/01/21 03:23:40;;;;;;;37.60;20.25;;;2.10;74.80;;;;;;5036315;28;20128;-44
2023/01/21 03:26:12;;;;;;;35.15;19.70;;;2.10;74.80;;;;;;5025528;28;20049;-46
2023/01/21 03:28:43;;;;;;;36.67;20.45;;;2.10;74.90;;;;;;5036064;28;20046;-48
2023/01/21 03:31:18;;;;;;;36.90;20.52;;;2.00;74.90;;;;;;5034986;28;20041;-45
2023/01/21 03:33:51;;;;;;;34.70;21.33;;;2.00;74.90;;;;;;5026596;28;20092;-43
2023/01/21 03:36:31;;;;;;;33.35;19.88;;;2.00;74.90;;;;;;5026350;28;20034;-44
2023/01/21 03:39:15;;;;;;;37.50;20.50;;;2.10;74.90;;;;;;5021526;28;20133;-45
2023/01/21 03:41:42;;;;;;;;;;;2.00;74.80;;;;;;5036094;28;20128;-42
2023/01/21 03:44:12;;;;;;;29.00;17.55;;;2.10;75.00;;;;;;5027281;28;19921;-46
2023/01/21 03:46:50;;;;;;;32.72;18.42;;;2.00;74.50;;;;;;5031336;28;20136;-43
2023/01/21 03:49:42;;;;;;;35.80;21.15;;;2.00;74.50;;;;;;5031845;28;20041;-46
2023/01/21 03:52:10;;;;;;;;;;;2.00;74.50;;;;;;5035728;28;20036;-44
2023/01/21 03:54:48;;;;;;;32.42;17.17;;;2.00;74.50;;;;;;5035148;28;19931;-46
2023/01/21 03:57:14;;;;;;;31.45;20.00;;;2.00;74.20;;;;;;5025033;28;20048;-44
2023/01/21 03:59:41;;;;;;;35.80;19.27;;;1.90;74.20;;;;;;5030856;28;20622;-43
2023/01/21 04:02:08;;;;;;;33.75;20.13;;;1.90;74.20;;;;;;5035510;28;20502;-44
2023/01/21 04:04:37;;;;;;;33.38;20.08;;;1.90;74.20;;;;;;5034697;28;20034;-43
2023/01/21 04:07:04;;;;;;;34.25;19.25;;;1.90;74.30;;;;;;5030632;28;20041;-42
2023/01/21 04:09:30;;;;;;;35.72;20.02;;;1.80;74.20;;;;;;5029311;28;20052;-45
2023/01/21 04:11:59;;;;;;;34.00;19.83;;;1.80;74.30;;;;;;5035334;28;20045;-43
2023/01/21 04:14:26;;;;;;;36.63;22.48;;;1.80;74.40;;;;;;5030581;28;20039;-44
2023/01/21 04:16:55;;;;;;;39.35;22.30;;;1.80;74.40;;;;;;5022169;28;20077;-44
2023/01/21 04:19:21;;;;;;;33.42;20.85;;;1.80;75.20;;;;;;5035353;28;20040;-45
2023/01/21 04:21:51;;;;;;;36.05;20.80;;;1.80;74.60;;;;;;5035333;28;20228;-44
2023/01/21 04:24:19;;;;;;;37.92;22.52;;;1.80;74.80;;;;;;5026820;28;20069;-45
2023/01/21 04:26:50;;;;;;;35.17;20.40;;;1.80;74.80;;;;;;5035446;28;20049;-44
2023/01/21 04:29:17;;;;;;;35.67;19.60;;;1.80;74.80;;;;;;5033711;28;20490;-45
2023/01/21 04:31:47;;;;;;;37.25;20.85;;;1.80;74.80;;;;;;5031285;28;20037;-43
2023/01/21 04:34:18;;;;;;;28.58;16.05;;;1.80;74.80;;;;;;5013654;28;20046;-44
2023/01/21 04:36:45;;;;;;;38.88;21.75;;;1.90;74.70;;;;;;5029934;28;20049;-44
2023/01/21 04:39:14;;;;;;;32.80;19.27;;;1.80;74.50;;;;;;5030911;28;20030;-43
2023/01/21 04:41:43;;;;;;;34.38;19.98;;;1.80;74.40;;;;;;5024106;28;20046;-48
2023/01/21 04:44:10;;;;;;;34.88;19.73;;;1.80;74.30;;;;;;5023699;28;20053;-43
2023/01/21 04:46:37;;;;;;;34.22;20.52;;;1.70;74.20;;;;;;5027339;28;20037;-44
2023/01/21 04:49:04;;;;;;;34.70;20.27;;;1.70;74.10;;;;;;5031728;28;20055;-45
2023/01/21 04:51:30;;;;;;;32.83;19.35;;;1.70;74.00;;;;;;5025653;28;20050;-44
2023/01/21 04:53:59;;;;;;;33.90;20.92;;;1.70;74.00;;;;;;5018403;28;20042;-44
2023/01/21 04:56:27;;;;;;;31.13;18.55;;;1.70;74.00;;;;;;5029155;28;20041;-45
2023/01/21 04:58:53;;;;;;;40.47;22.67;;;1.60;74.00;;;;;;5032448;28;20030;-47
2023/01/21 05:01:20;;;;;;;36.55;20.23;;;1.60;74.00;;;;;;5031205;28;20620;-43
2023/01/21 05:03:49;;;;;;;36.45;20.63;;;1.60;74.10;;;;;;5022927;28;20046;-44
2023/01/21 05:06:16;;;;;;;37.30;22.35;;;1.60;74.20;;;;;;5028040;28;20556;-44
2023/01/21 05:08:47;;;;;;;37.08;20.88;;;1.70;74.30;;;;;;5032276;28;20048;-44
2023/01/21 05:11:18;;;;;;;36.15;21.48;;;1.60;74.30;;;;;;5021891;28;20033;-49
2023/01/21 05:13:45;;;;;;;39.30;21.45;;;1.60;74.30;;;;;;5027526;28;20049;-44
2023/01/21 05:16:15;;;;;;;38.28;21.63;;;1.60;74.30;;;;;;5031280;28;20476;-46
2023/01/21 05:18:47;;;;;;;37.08;20.58;;;1.60;74.40;;;;;;5024216;28;20088;-44
2023/01/21 05:21:15;;;;;;;38.38;22.67;;;1.60;74.40;;;;;;5017782;28;20617;-46
2023/01/21 05:23:44;;;;;;;38.00;22.15;;;1.60;74.40;;;;;;5029227;28;20449;-49
2023/01/21 05:26:11;;;;;;;38.75;21.15;;;1.50;74.30;;;;;;5022677;28;20045;-45
2023/01/21 05:28:38;;;;;;;42.50;23.63;;;1.50;74.30;;;;;;5031310;28;20111;-46
2023/01/21 05:31:04;;;;;;;38.22;22.38;;;1.50;74.40;;;;;;5016926;28;20038;-47
2023/01/21 05:33:38;;;;;;;43.10;21.67;;;1.60;74.50;;;;;;5026104;28;20044;-48
2023/01/21 05:36:05;;;;;;;40.47;23.02;;;1.50;74.60;;;;;;5030430;28;20052;-46
2023/01/21 05:38:33;;;;;;;40.33;23.27;;;1.50;74.60;;;;;;5029227;28;20622;-47
2023/01/21 05:41:01;;;;;;;40.25;21.92;;;1.50;74.60;;;;;;5021871;28;20049;-48
2023/01/21 05:43:28;;;;;;;42.00;23.10;;;1.50;74.60;;;;;;5013771;28;20120;-45
2023/01/21 05:45:55;;;;;;;39.10;23.15;;;1.50;74.60;;;;;;5030391;28;20140;-45
2023/01/21 05:48:22;;;;;;;38.78;21.58;;;1.50;74.60;;;;;;5028618;28;20050;-45
2023/01/21 05:50:54;;;;;;;40.63;23.83;;;1.50;74.60;;;;;;5019300;28;20046;-49
2023/01/21 05:53:24;;;;;;;41.90;23.05;;;1.50;74.50;;;;;;5030709;28;20453;-47
2023/01/21 05:55:53;;;;;;;38.85;21.85;;;1.50;74.40;;;;;;5029455;28;20073;-46
2023/01/21 05:58:23;;;;;;;39.20;22.17;;;1.50;74.30;;;;;;5025443;28;20033;-45
2023/01/21 06:00:55;;;;;;;40.53;22.23;;;1.50;74.20;;;;;;5029707;28;20132;-45
2023/01/21 06:03:30;;;;;;;37.67;21.77;;;1.40;74.00;;;;;;5030542;28;20516;-44
2023/01/21 06:05:57;;;;;;;40.65;21.92;;;1.40;73.90;;;;;;5021197;28;20042;-47
2023/01/21 06:08:26;;;;;;;39.47;22.42;;;1.40;73.80;;;;;;5007253;28;20050;-45
2023/01/21 06:10:55;;;;;;;35.28;22.25;;;1.40;73.80;;;;;;5026705;28;20049;-46
2023/01/21 06:13:25;;;;;;;40.88;21.88;;;1.40;73.80;;;;;;5030325;28;20095;-48
2023/01/21 06:15:59;;;;;;;38.65;22.30;;;1.40;73.70;;;;;;5029256;28;20401;-49
2023/01/21 06:18:28;;;;;;;38.75;20.42;;;1.30;73.60;;;;;;5027241;28;20116;-47
2023/01/21 06:21:00;;;;;;;36.90;22.25;;;1.30;73.60;;;;;;5030720;28;20115;-49
2023/01/21 06:23:32;;;;;;;34.65;19.77;;;1.30;73.60;;;;;;5030502;28;20412;-44
2023/01/21 06:26:04;;;;;;;36.78;20.60;;;1.20;73.50;;;;;;5029925;28;20049;-44
2023/01/21 06:28:31;;;;;;;32.00;19.83;;;1.20;73.40;;;;;;5019384;28;20053;-48
2023/01/21 06:30:58;;;;;;;42.00;21.67;;;1.20;73.40;;;;;;5028925;28;20045;-47
2023/01/21 06:33:27;;;;;;;37.25;21.85;;;1.20;73.40;;;;;;5029693;28;20057;-44
2023/01/21 06:35:54;;;;;;;37.40;20.35;;;1.30;73.40;;;;;;5025973;28;20245;-45
2023/01/21 06:38:23;;;;;;;40.45;22.30;;;1.20;73.30;;;;;;5030036;28;20037;-44
2023/01/21 06:40:52;;;;;;;36.22;20.83;;;1.10;73.20;;;;;;5029870;28;20510;-48
2023/01/21 06:43:19;;;;;;;39.90;22.50;;;1.10;73.20;;;;;;5028214;28;20053;-47
2023/01/21 06:45:46;;;;;;;41.08;21.95;;;1.00;73.20;;;;;;5018870;28;20166;-45
2023/01/21 06:48:18;;;;;;;43.97;23.33;;;1.10;73.50;;;;;;5030071;28;20052;-44
2023/01/21 06:50:47;;;;;;;36.15;21.17;;;1.00;73.60;;;;;;5038862;28;20057;-44
2023/01/21 06:53:15;;;;;;;38.80;22.17;;;1.00;73.70;;;;;;5034125;28;20635;-44
2023/01/21 06:55:50;;;;;;;41.63;22.65;;;1.00;73.60;;;;;;5030673;28;20497;-44
2023/01/21 06:58:20;;;;;;;39.88;22.40;;;1.00;73.60;;;;;;5034947;28;20420;-45
2023/01/21 07:00:49;;;;;;;36.75;21.25;;;1.00;73.70;;;;;;5032361;28;20048;-46
2023/01/21 07:03:21;;;;;;;40.67;22.35;;;1.00;73.70;;;;;;5022917;28;20049;-44
2023/01/21 07:05:47;;;;;;;;;;;1.00;73.70;;;;;;5020108;28;20041;-45
2023/01/21 07:08:16;;;;;;;40.78;21.13;;;1.00;73.60;;;;;;5018378;28;19925;-49
2023/01/21 07:10:43;;;;;;;34.60;19.27;;;1.00;73.60;;;;;;5027602;28;20052;-45
2023/01/21 07:13:13;;;;;;;39.55;22.75;;;1.00;73.60;;;;;;5028704;28;20460;-46
2023/01/21 07:15:40;;;;;;;44.35;23.23;;;1.00;73.70;;;;;;5023499;28;20072;-44
2023/01/21 07:18:11;;;;;;;46.13;22.90;;;1.00;74.00;;;;;;5028301;28;20041;-48
2023/01/21 07:20:41;;;;;;;37.13;21.15;;;1.00;74.20;;;;;;5029066;28;20045;-49
2023/01/21 07:23:08;;;;;;;41.88;22.35;;;1.00;74.30;;;;;;5019661;28;20037;-47
2023/01/21 07:25:36;;;;;;;41.45;22.75;;;1.00;74.40;;;;;;5028629;28;20045;-48
2023/01/21 07:28:03;;;;;;;42.47;23.45;;;1.00;74.30;;;;;;5025651;28;20409;-48
2023/01/21 07:30:29;;;;;;;44.08;22.30;;;1.10;74.40;;;;;;5028182;28;20708;-46
2023/01/21 07:32:56;;;;;;;38.33;21.23;;;1.10;74.40;;;;;;5028458;28;20520;-46
2023/01/21 07:35:23;;;;;;;43.13;22.33;;;1.20;74.50;;;;;;5003871;28;20042;-46
2023/01/21 07:37:49;;;;;;;38.42;23.35;;;1.10;74.40;;;;;;5028719;28;20052;-49
2023/01/21 07:40:16;;;;;;;41.55;23.33;;;1.10;74.40;;;;;;5012053;28;20042;-50
2023/01/21 07:42:43;;;;;;;41.17;22.75;;;1.10;74.50;;;;;;5018265;28;20064;-51
2023/01/21 07:45:10;;;;;;;42.83;23.88;;;1.10;74.50;;;;;;5026291;28;20824;-49
2023/01/21 07:47:36;;;;;;;41.40;23.38;;;1.20;74.60;;;;;;5027136;28;20046;-48
2023/01/21 07:50:07;;;;;;;42.00;22.92;;;1.20;74.60;;;;;;5022575;28;20046;-48
2023/01/21 07:52:34;;;;;;;45.55;23.83;;;1.20;74.60;;;;;;5028249;28;20041;-49
2023/01/21 07:55:01;;;;;;;44.33;23.70;;;1.20;74.60;;;;;;5026520;28;20113;-50
2023/01/21 07:57:30;;;;;;;44.10;24.13;;;1.20;74.60;;;;;;5015221;28;20053;-52
2023/01/21 07:59:57;;;;;;;43.38;23.02;;;1.30;74.80;;;;;;5027787;28;20065;-49
2023/01/21 08:02:26;;;;;;;44.58;23.48;;;1.30;74.70;;;;;;5007174;28;20047;-47
2023/01/21 08:04:56;;;;;;;39.17;22.60;;;1.30;74.60;;;;;;5027439;28;20046;-50
2023/01/21 08:07:22;;;;;;;39.70;22.20;;;1.30;74.60;;;;;;5033977;28;20073;-51
2023/01/21 08:09:49;;;;;;;39.83;23.73;;;1.30;74.60;;;;;;5027328;28;20128;-52
2023/01/21 08:12:18;;;;;;;42.20;23.88;;;1.30;74.50;;;;;;5025495;28;20494;-47
2023/01/21 08:14:45;;;;;;;44.67;24.05;;;1.30;74.40;;;;;;5031695;28;20060;-49
2023/01/21 08:17:11;;;;;;;41.45;23.15;;;1.30;74.40;;;;;;5028280;28;20556;-51
2023/01/21 08:19:38;;;;;;;42.47;23.42;;;1.40;74.40;;;;;;5024918;28;20052;-48
2023/01/21 08:22:05;;;;;;;40.97;22.98;;;1.40;74.50;;;;;;5030346;28;20054;-51
2023/01/21 08:24:32;;;;;;;43.25;23.08;;;1.40;74.60;;;;;;5026065;28;20127;-51
2023/01/21 08:26:59;;;;;;;48.08;25.25;;;1.40;74.60;;;;;;5033107;28;20041;-52
2023/01/21 08:29:26;;;;;;;46.22;25.13;;;1.40;75.30;;;;;;5031898;28;20065;-50
2023/01/21 08:31:53;;;;;;;46.45;24.92;;;1.40;74.80;;;;;;5026559;28;20042;-53
2023/01/21 08:34:20;;;;;;;46.58;24.23;;;1.50;74.80;;;;;;5025571;28;20043;-49
2023/01/21 08:36:46;;;;;;;44.78;24.45;;;1.50;74.90;;;;;;5013292;28;20046;-51
2023/01/21 08:39:15;;;;;;;47.42;24.30;;;1.50;74.80;;;;;;5022754;28;20122;-52
2023/01/21 08:41:43;;;;;;;45.67;24.23;;;1.50;74.90;;;;;;5033127;28;20053;-53
2023/01/21 08:44:10;;;;;;;46.90;25.25;;;1.60;74.90;;;;;;5030867;28;20056;-53
2023/01/21 08:46:36;;;;;;;50.10;25.95;;;1.60;74.90;;;;;;5026620;28;20670;-51
2023/01/21 08:49:03;;;;;;;48.55;25.88;;;1.60;74.90;;;;;;5012719;28;20053;-52
2023/01/21 08:51:30;;;;;;;54.42;27.60;;;1.60;74.90;;;;;;5031487;28;20107;-50
2023/01/21 08:53:57;;;;;;;51.92;26.00;;;1.60;74.90;;;;;;5031182;28;20041;-50
2023/01/21 08:56:23;;;;;;;47.78;25.88;;;1.70;75.10;;;;;;5021093;28;20053;-53
2023/01/21 08:58:57;;;;;;;48.28;25.63;;;1.70;75.10;;;;;;5026204;28;20531;-50
2023/01/21 09:01:24;;;;;;;47.67;27.30;;;1.70;75.20;;;;;;5022811;28;20112;-49
2023/01/21 09:03:59;;;;;;;49.75;27.77;;;1.80;75.20;;;;;;5030022;28;20064;-49
2023/01/21 09:06:27;;;;;;;50.70;26.90;;;1.80;75.30;;;;;;5022637;28;20041;-51
2023/01/21 09:08:57;;;;;;;50.85;28.00;;;1.80;75.30;;;;;;5024512;28;20044;-49
2023/01/21 09:11:25;;;;;;;52.67;28.52;;;1.90;75.40;;;;;;5031541;28;20420;-49
2023/01/21 09:13:52;;;;;;;53.25;27.70;;;1.90;75.40;;;;;;5030206;28;20038;-51
2023/01/21 09:16:21;;;;;;;51.95;26.98;;;1.90;75.40;;;;;;5025762;28;20065;-48
2023/01/21 09:18:48;;;;;;;52.42;27.25;;;1.90;75.40;;;;;;5042252;28;20494;-49
2023/01/21 09:21:15;;;;;;;54.47;28.55;;;2.00;75.50;;;;;;5044379;28;20112;-47
2023/01/21 09:23:43;;;;;;;53.97;27.92;;;2.10;75.70;;;;;;5030495;28;20117;-49
2023/01/21 09:26:23;;;;;;;52.03;27.42;;;2.10;75.80;;;;;;5030894;28;20073;-50
2023/01/21 09:28:55;;;;;;;56.30;29.15;;;2.10;75.90;;;;;;5010405;28;20120;-50
2023/01/21 09:31:24;;;;;;;53.53;28.52;;;2.30;76.00;;;;;;5031312;28;20080;-51
2023/01/21 09:33:59;;;;;;;54.67;29.75;;;2.30;76.20;;;;;;5026780;28;20044;-50
2023/01/21 09:36:29;;;;;;;57.30;31.63;;;2.40;76.40;;;;;;5023707;28;20060;-46
2023/01/21 09:38:56;;;;;;;58.80;30.13;;;2.50;76.40;;;;;;5019982;28;20049;-50
2023/01/21 09:41:35;;;;;;;57.75;30.17;;;2.60;76.30;;;;;;5023481;28;20041;-50
2023/01/21 09:44:25;;;;;;;49.75;26.92;;;2.70;76.10;;;;;;5034002;28;20064;-50
2023/01/21 09:47:01;;;;;;;55.60;30.08;;;2.80;75.90;;;;;;5018045;28;20049;-48
2023/01/21 09:49:37;;;;;;;56.05;30.70;;;2.80;75.70;;;;;;5027416;28;20046;-47
2023/01/21 09:52:29;;;;;;;58.65;32.05;;;2.90;75.50;;;;;;5029631;28;20041;-50
2023/01/21 09:54:56;;;;;;;58.77;30.57;;;3.00;75.50;;;;;;5022290;28;20465;-46
2023/01/21 09:57:54;;;;;;;59.33;30.88;;;3.10;75.50;;;;;;5021950;28;20037;-48
2023/01/21 10:00:20;;;;;;;56.65;28.75;;;3.20;75.50;;;;;;5030019;28;20041;-51
2023/01/21 10:03:03;;;;;;;52.63;28.27;;;3.20;75.40;;;;;;5025724;28;20041;-47
2023/01/21 10:06:04;;;;;;;53.83;28.85;;;3.30;75.50;;;;;;5029847;28;20386;-49
2023/01/21 10:08:36;;;;;;;47.80;27.40;;;3.40;75.50;;;;;;5023257;28;20044;-51
2023/01/21 10:11:41;;;;;;;59.13;28.70;;;3.50;75.40;;;;;;5020321;28;20055;-50
2023/01/21 10:14:42;;;;;;;55.63;28.80;;;3.70;75.10;;;;;;5020953;28;20077;-51
2023/01/21 10:17:17;;;;;;;55.00;26.70;;;3.70;74.80;;;;;;5031501;28;20132;-50
2023/01/21 10:19:54;;;;;;;47.03;25.58;;;3.80;74.70;;;;;;5022127;28;20050;-50
2023/01/21 10:22:28;;;;;;;43.95;26.55;;;3.90;74.50;;;;;;5011899;28;20049;-51
2023/01/21 10:24:59;;;;;;;53.22;26.30;;;4.00;74.50;;;;;;5029294;28;20457;-51
2023/01/21 10:27:28;;;;;;;48.90;26.38;;;4.00;74.40;;;;;;5025529;28;20038;-49
2023/01/21 10:30:01;;;;;;;43.17;24.20;;;4.00;74.20;;;;;;5022174;28;20073;-50
2023/01/21 10:32:28;;;;;;;41.95;22.55;;;4.10;74.00;;;;;;5022707;28;20038;-48
2023/01/21 10:34:56;;;;;;;43.95;23.80;;;4.20;73.90;;;;;;5029317;28;20042;-48
2023/01/21 10:37:39;;;;;;;46.28;25.67;;;4.20;73.70;;;;;;5027298;28;20088;-49
2023/01/21 10:40:11;;;;;;;44.88;23.90;;;4.20;73.40;;;;;;5010757;28;20133;-50
2023/01/21 10:43:00;;;;;;;43.72;24.10;;;4.20;73.40;;;;;;5024230;28;20084;-49
2023/01/21 10:45:43;;;;;;;46.47;24.65;;;4.30;73.20;;;;;;5029687;28;20084;-51
2023/01/21 10:48:30;;;;;;;46.78;23.45;;;4.30;73.20;;;;;;5024374;28;20457;-47
2023/01/21 10:51:11;;;;;;;45.67;24.42;;;4.40;72.90;;;;;;5021170;28;20077;-49
2023/01/21 10:53:58;;;;;;;47.08;25.08;;;4.30;72.90;;;;;;5022646;28;20061;-48
2023/01/21 10:56:52;;;;;;;40.47;22.77;;;4.40;72.80;;;;;;5022215;28;20553;-50
2023/01/21 10:59:22;;;;;;;43.70;23.15;;;4.40;72.90;;;;;;5025276;28;20052;-49
2023/01/21 11:02:03;;;;;;;45.92;24.27;;;4.40;72.90;;;;;;5030108;28;20052;-51
2023/01/21 11:04:32;;;;;;;43.38;23.63;;;4.40;72.90;;;;;;5033498;28;20044;-51
2023/01/21 11:07:07;;;;;;;44.83;22.92;;;4.40;72.90;;;;;;5028635;28;20029;-51
2023/01/21 11:09:39;;;;;;;49.40;25.05;;;4.50;72.90;;;;;;5020429;28;20116;-50
2023/01/21 11:12:09;;;;;;;48.63;26.63;;;4.40;72.60;;;;;;5029293;28;20045;-50
2023/01/21 11:14:36;;;;;;;46.53;23.95;;;4.40;72.50;;;;;;5011070;28;20052;-51
2023/01/21 11:17:04;;;;;;;46.10;24.95;;;4.50;72.70;;;;;;5023604;28;20050;-50
2023/01/21 11:19:33;;;;;;;41.55;23.27;;;4.50;72.80;;;;;;5022291;28;20038;-53
2023/01/21 11:22:13;;;;;;;47.70;24.77;;;4.50;72.80;;;;;;5029353;28;20041;-51
2023/01/21 11:24:47;;;;;;;47.03;24.17;;;4.50;72.70;;;;;;5016402;28;20049;-49
2023/01/21 11:27:38;;;;;;;46.55;24.52;;;4.50;72.60;;;;;;5022386;28;20049;-52
2023/01/21 11:30:32;;;;;;;45.70;23.85;;;4.50;72.40;;;;;;5027045;28;20474;-50
2023/01/21 11:33:26;;;;;;;47.67;25.60;;;4.50;72.40;;;;;;5029648;28;20045;-49
2023/01/21 11:35:54;;;;;;;49.83;24.23;;;4.60;72.60;;;;;;5028879;28;20034;-52
2023/01/21 11:38:36;;;;;;;43.27;23.27;;;4.60;72.70;;;;;;5023311;28;20033;-49
2023/01/21 11:41:18;;;;;;;43.00;23.73;;;4.60;72.80;;;;;;5033934;28;20033;-51
2023/01/21 11:43:53;;;;;;;41.50;23.13;;;4.60;72.80;;;;;;5032700;28;20103;-52
2023/01/21 11:46:38;;;;;;;45.95;22.98;;;4.60;72.90;;;;;;5021716;28;20041;-50
2023/01/21 11:49:07;;;;;;;38.20;22.58;;;4.70;72.80;;;;;;5030660;28;20133;-48
2023/01/21 11:51:38;;;;;;;40.17;22.48;;;4.80;73.10;;;;;;5033639;28;20041;-51
2023/01/21 11:54:12;;;;;;;42.78;23.10;;;4.80;72.90;;;;;;5036043;28;20133;-52
2023/01/21 11:56:44;;;;;;;43.00;22.58;;;4.80;72.80;;;;;;5022173;28;20042;-52
2023/01/21 11:59:23;;;;;;;38.63;22.02;;;4.90;72.80;;;;;;5025421;28;20042;-49
2023/01/21 12:02:11;;;;;;;36.13;21.67;;;4.90;72.40;;;;;;5029290;28;20095;-51
2023/01/21 12:04:47;;;;;;;41.13;20.27;;;5.00;72.30;;;;;;5019923;28;20522;-52
2023/01/21 12:07:25;;;;;;;40.40;22.30;;;5.00;72.00;;;;;;5022273;28;20073;-49
2023/01/21 12:10:12;;;;;;;40.05;20.38;;;5.00;71.90;;;;;;5031455;28;20045;-50
2023/01/21 12:12:39;;;;;;;41.92;21.83;;;5.10;71.50;;;;;;5014144;28;20129;-50
2023/01/21 12:15:32;;;;;;;39.95;21.10;;;5.10;71.90;;;;;;5030134;28;20060;-48
2023/01/21 12:18:26;;;;;;;35.33;20.50;;;5.10;71.50;;;;;;5024206;28;20053;-53
2023/01/21 12:21:11;;;;;;;41.08;21.45;;;5.10;71.50;;;;;;5030087;28;20046;-50
2023/01/21 12:23:53;;;;;;;40.95;20.75;;;5.10;71.90;;;;;;5020908;28;20088;-49
2023/01/21 12:26:35;;;;;;;36.40;21.13;;;5.10;71.60;;;;;;5032875;28;20132;-49
2023/01/21 12:29:29;;;;;;;38.60;19.83;;;5.20;71.90;;;;;;5031423;28;20088;-48
2023/01/21 12:32:03;;;;;;;35.67;20.70;;;5.20;71.50;;;;;;5021686;28;20081;-49
2023/01/21 12:34:33;;;;;;;36.65;20.95;;;5.20;71.70;;;;;;5023966;28;20033;-49
2023/01/21 12:37:27;;;;;;;38.65;20.65;;;5.20;71.70;;;;;;5032638;28;20125;-49
2023/01/21 12:39:58;;;;;;;34.30;20.83;;;5.20;71.40;;;;;;5021733;28;20041;-49
2023/01/21 12:42:36;;;;;;;;;;;5.30;71.80;;;;;;5037133;28;20410;-48
2023/01/21 12:45:11;;;;;;;35.35;19.10;;;5.40;71.60;;;;;;5041670;28;19928;-50
2023/01/21 12:47:48;;;;;;;32.88;18.52;;;5.40;71.80;;;;;;5043804;28;20044;-51
2023/01/21 12:50:27;;;;;;;36.13;19.30;;;5.50;71.40;;;;;;5038794;28;20046;-50
2023/01/21 12:53:14;;;;;;;35.67;18.77;;;5.50;71.10;;;;;;5036729;28;20037;-49
2023/01/21 12:56:14;;;;;;;36.00;20.15;;;5.50;71.20;;;;;;5042583;28;20037;-48
2023/01/21 12:58:55;;;;;;;36.25;20.83;;;5.60;70.80;;;;;;5024580;28;20530;-49
2023/01/21 13:01:39;;;;;;;39.10;20.65;;;5.60;70.90;;;;;;5023399;28;20612;-49
2023/01/21 13:04:22;;;;;;;37.45;20.58;;;5.60;70.30;;;;;;5031242;28;20046;-49
2023/01/21 13:07:01;;;;;;;;;;;5.60;70.10;;;;;;5014994;28;20140;-49
2023/01/21 13:09:32;;;;;;;38.17;19.70;;;5.60;70.40;;;;;;5018611;28;19926;-50
2023/01/21 13:12:14;;;;;;;38.20;19.85;;;5.70;70.80;;;;;;5030527;28;20042;-47
2023/01/21 13:14:49;;;;;;;36.55;20.48;;;5.60;70.50;;;;;;5030603;28;20053;-47